createdAt,value
2018-02-20T00:01:34.720Z,99.90
2018-02-20T00:04:02.957Z,99.90
2018-02-20T00:06:31.187Z,99.90
2018-02-20T00:09:00.348Z,99.90
2018-02-20T00:11:28.584Z,99.90
2018-02-20T00:13:56.820Z,99.90
2018-02-20T00:16:26.996Z,99.90
2018-02-20T00:18:55.240Z,99.90
2018-02-20T00:23:54.244Z,99.90
2018-02-20T00:28:51.940Z,99.90
2018-02-20T00:31:21.027Z,99.90
2018-02-20T00:33:49.257Z,99.90
2018-02-20T00:36:17.492Z,99.90
2018-02-20T00:38:50.732Z,99.90
2018-02-20T00:41:19.728Z,99.90
2018-02-20T00:43:48.352Z,99.90
2018-02-20T00:46:16.956Z,99.90
2018-02-20T00:48:45.951Z,99.90
2018-02-20T00:51:14.184Z,99.90
2018-02-20T00:53:42.988Z,99.90
2018-02-20T00:56:12.356Z,99.90
2018-02-20T00:58:40.605Z,99.90
2018-02-20T01:01:09.772Z,99.90
2018-02-20T01:03:39.524Z,99.90
2018-02-20T01:06:07.777Z,99.90
2018-02-20T01:08:37.525Z,99.90
2018-02-20T01:11:05.794Z,99.90
2018-02-20T01:13:35.171Z,99.90
2018-02-20T01:16:03.748Z,99.90
2018-02-20T01:18:33.486Z,99.90
2018-02-20T01:21:02.489Z,99.90
2018-02-20T01:23:32.444Z,99.90
2018-02-20T01:28:30.140Z,99.90
2018-02-20T01:30:58.631Z,99.90
2018-02-20T01:33:27.996Z,99.90
2018-02-20T01:35:57.005Z,99.90
2018-02-20T01:38:25.393Z,99.90
2018-02-20T01:40:55.218Z,99.90
2018-02-20T01:43:24.593Z,99.90
2018-02-20T01:45:54.796Z,99.90
2018-02-20T01:48:23.020Z,99.90
2018-02-20T01:51:03.272Z,99.90
2018-02-20T01:53:31.505Z,99.90
2018-02-20T01:55:59.740Z,99.90
2018-02-20T02:05:57.741Z,99.90
2018-02-20T02:08:27.480Z,99.90
2018-02-20T02:10:56.484Z,99.90
2018-02-20T02:13:24.974Z,99.90
2018-02-20T02:15:54.723Z,99.90
2018-02-20T02:18:22.952Z,99.90
2018-02-20T02:23:22.412Z,99.90
2018-02-20T02:25:51.404Z,99.90
2018-02-20T02:28:21.483Z,99.90
2018-02-20T02:30:50.856Z,99.90
2018-02-20T02:33:19.076Z,99.90
2018-02-20T02:35:50.467Z,99.90
2018-02-20T02:38:19.101Z,99.90
2018-02-20T02:40:48.096Z,99.90
2018-02-20T02:43:20.828Z,99.90
2018-02-20T02:45:49.452Z,99.90
2018-02-20T02:48:17.685Z,99.90
2018-02-20T02:50:46.449Z,99.90
2018-02-20T02:55:44.137Z,99.90
2018-02-20T03:00:48.169Z,99.90
2018-02-20T03:03:17.152Z,99.90
2018-02-20T03:05:46.892Z,99.90
2018-02-20T03:08:16.340Z,99.90
2018-02-20T03:10:45.336Z,99.90
2018-02-20T03:13:13.571Z,99.90
2018-02-20T03:15:42.616Z,99.90
2018-02-20T03:18:10.860Z,99.90
2018-02-20T03:20:39.113Z,99.90
2018-02-20T03:23:07.542Z,99.90
2018-02-20T03:25:35.825Z,99.90
2018-02-20T03:28:04.052Z,99.90
2018-02-20T03:30:32.413Z,99.90
2018-02-20T03:33:01.408Z,99.90
2018-02-20T03:35:30.408Z,99.90
2018-02-20T03:40:35.124Z,99.90
2018-02-20T03:45:35.510Z,99.90
2018-02-20T03:55:38.559Z,99.90
2018-02-20T03:58:07.381Z,99.90
2018-02-20T04:00:36.751Z,99.90
2018-02-20T04:03:04.975Z,99.90
2018-02-20T04:08:04.088Z,99.90
2018-02-20T04:10:33.099Z,99.90
2018-02-20T04:13:02.304Z,99.90
2018-02-20T04:15:31.300Z,99.90
2018-02-20T04:17:59.532Z,99.90
2018-02-20T04:20:28.036Z,99.90
2018-02-20T04:22:57.772Z,99.90
2018-02-20T04:25:26.785Z,99.90
2018-02-20T04:27:56.627Z,99.90
2018-02-20T04:32:54.338Z,99.90
2018-02-20T04:35:23.064Z,99.90
2018-02-20T04:37:52.431Z,99.90
2018-02-20T04:40:21.056Z,99.90
2018-02-20T04:42:50.428Z,99.90
2018-02-20T04:45:19.428Z,99.90
2018-02-20T04:47:49.433Z,99.90
2018-02-20T04:50:17.802Z,99.90
2018-02-20T04:52:47.536Z,99.90
2018-02-20T04:55:17.268Z,99.90
2018-02-20T04:57:46.356Z,99.90
2018-02-20T05:00:15.344Z,99.90
2018-02-20T05:02:43.567Z,99.90
2018-02-20T05:05:12.012Z,99.90
2018-02-20T05:07:41.759Z,99.90
2018-02-20T05:10:09.992Z,99.90
2018-02-20T05:12:38.586Z,99.90
2018-02-20T05:15:06.848Z,99.90
2018-02-20T05:17:36.223Z,99.90
2018-02-20T05:20:05.328Z,99.90
2018-02-20T05:22:34.323Z,99.90
2018-02-20T05:25:03.326Z,99.90
2018-02-20T05:27:31.705Z,99.90
2018-02-20T05:30:00.731Z,99.90
2018-02-20T05:32:28.928Z,99.90
2018-02-20T05:34:57.492Z,99.90
2018-02-20T05:37:25.737Z,99.90
2018-02-20T05:39:53.960Z,99.90
2018-02-20T05:42:24.132Z,99.90
2018-02-20T05:44:53.492Z,99.90
2018-02-20T05:47:21.725Z,99.90
2018-02-20T05:49:50.779Z,99.90
2018-02-20T05:52:19.775Z,99.90
2018-02-20T05:57:18.044Z,99.90
2018-02-20T05:59:47.968Z,99.90
2018-02-20T06:02:16.960Z,99.90
2018-02-20T06:07:16.464Z,99.90
2018-02-20T06:09:45.460Z,99.90
2018-02-20T06:12:15.352Z,99.90
2018-02-20T06:14:43.588Z,99.90
2018-02-20T06:17:11.933Z,99.90
2018-02-20T06:19:41.073Z,99.90
2018-02-20T06:22:09.321Z,99.90
2018-02-20T06:24:37.567Z,99.90
2018-02-20T06:27:07.822Z,99.90
2018-02-20T06:29:36.073Z,99.90
2018-02-20T06:32:04.464Z,99.90
2018-02-20T06:34:34.552Z,99.90
2018-02-20T06:37:03.921Z,99.90
2018-02-20T06:39:32.148Z,99.90
2018-02-20T06:42:00.791Z,99.90
2018-02-20T06:44:30.160Z,99.90
2018-02-20T06:46:58.384Z,99.90
2018-02-20T06:49:26.937Z,99.90
2018-02-20T06:54:24.873Z,99.90
2018-02-20T06:56:54.749Z,99.90
2018-02-20T06:59:22.976Z,99.90
2018-02-20T07:01:51.601Z,99.90
2018-02-20T07:04:20.038Z,99.90
2018-02-20T07:06:49.028Z,99.90
2018-02-20T07:09:18.021Z,99.90
2018-02-20T07:11:47.348Z,99.90
2018-02-20T07:14:15.576Z,99.90
2018-02-20T07:19:14.548Z,99.90
2018-02-20T07:21:43.915Z,99.90
2018-02-20T07:24:12.152Z,99.90
2018-02-20T07:26:42.120Z,99.90
2018-02-20T07:29:11.864Z,99.90
2018-02-20T07:31:40.105Z,99.90
2018-02-20T07:39:12.540Z,99.90
2018-02-20T07:41:41.552Z,99.90
2018-02-20T07:44:11.303Z,99.90
2018-02-20T07:46:39.546Z,99.90
2018-02-20T07:49:07.790Z,99.90
2018-02-20T07:51:37.436Z,99.90
2018-02-20T07:54:05.900Z,99.90
2018-02-20T07:56:34.123Z,99.90
2018-02-20T07:59:04.016Z,99.90
2018-02-20T08:01:32.247Z,99.90
2018-02-20T08:04:00.476Z,99.90
2018-02-20T08:06:29.700Z,99.90
2018-02-20T08:08:58.332Z,99.90
2018-02-20T08:11:26.572Z,99.90
2018-02-20T08:13:56.560Z,99.90
2018-02-20T08:16:24.787Z,99.90
2018-02-20T08:18:53.024Z,99.90
2018-02-20T08:21:21.459Z,99.90
2018-02-20T08:23:50.472Z,99.90
2018-02-20T08:26:19.468Z,99.90
2018-02-20T08:28:48.208Z,99.90
2018-02-20T08:31:16.831Z,99.90
2018-02-20T08:33:45.061Z,99.90
2018-02-20T08:36:14.388Z,99.90
2018-02-20T08:38:43.392Z,99.90
2018-02-20T08:41:11.635Z,99.90
2018-02-20T08:43:40.501Z,99.90
2018-02-20T08:46:09.520Z,99.90
2018-02-20T08:48:37.781Z,96.70
2018-02-20T08:51:07.145Z,93.50
2018-02-20T08:53:35.768Z,89.80
2018-02-20T08:56:04.279Z,83.10
2018-02-20T08:58:32.779Z,77.60
2018-02-20T09:01:01.014Z,74.20
2018-02-20T09:03:29.240Z,69.60
2018-02-20T09:05:59.823Z,65.40
2018-02-20T09:08:28.453Z,62.90
2018-02-20T09:10:56.704Z,58.70
2018-02-20T09:13:28.731Z,58.00
2018-02-20T09:15:56.987Z,54.90
2018-02-20T09:18:25.239Z,54.30
2018-02-20T09:20:54.687Z,52.70
2018-02-20T09:23:23.312Z,50.90
2018-02-20T09:25:51.547Z,49.50
2018-02-20T09:28:21.444Z,48.70
2018-02-20T09:30:49.676Z,46.10
2018-02-20T09:35:47.926Z,44.60
2018-02-20T09:38:16.924Z,44.10
2018-02-20T09:40:46.730Z,42.80
2018-02-20T09:43:15.554Z,41.30
2018-02-20T09:45:44.175Z,40.30
2018-02-20T09:48:13.172Z,38.40
2018-02-20T09:50:42.880Z,37.10
2018-02-20T09:53:11.521Z,36.70
2018-02-20T09:55:40.539Z,35.80
2018-02-20T10:00:38.763Z,34.90
2018-02-20T10:03:06.998Z,33.70
2018-02-20T10:05:35.444Z,32.50
2018-02-20T10:08:04.448Z,32.40
2018-02-20T10:10:33.448Z,32.40
2018-02-20T10:13:01.948Z,31.20
2018-02-20T10:15:31.693Z,30.50
2018-02-20T10:17:59.926Z,30.40
2018-02-20T10:20:29.868Z,30.00
2018-02-20T10:22:58.870Z,29.60
2018-02-20T10:25:27.880Z,28.80
2018-02-20T10:27:56.831Z,28.60
2018-02-20T10:30:25.076Z,29.20
2018-02-20T10:32:53.304Z,29.10
2018-02-20T10:35:22.547Z,29.10
2018-02-20T10:37:51.548Z,30.00
2018-02-20T10:40:20.548Z,29.70
2018-02-20T10:42:49.812Z,29.90
2018-02-20T10:45:18.811Z,30.80
2018-02-20T10:47:47.043Z,29.60
2018-02-20T10:50:16.152Z,29.40
2018-02-20T10:52:45.148Z,30.20
2018-02-20T10:55:13.379Z,29.80
2018-02-20T10:57:41.885Z,30.00
2018-02-20T11:00:10.436Z,28.80
2018-02-20T11:02:38.715Z,29.30
2018-02-20T11:05:07.823Z,29.20
2018-02-20T11:07:36.062Z,28.90
2018-02-20T11:10:04.287Z,29.40
2018-02-20T11:12:32.673Z,28.90
2018-02-20T11:15:00.904Z,29.00
2018-02-20T11:17:29.904Z,29.30
2018-02-20T11:19:59.156Z,29.50
2018-02-20T11:22:28.163Z,30.40
2018-02-20T11:24:57.175Z,31.00
2018-02-20T11:27:25.817Z,31.50
2018-02-20T11:30:02.420Z,29.50
2018-02-20T11:32:31.421Z,29.60
2018-02-20T11:34:59.673Z,29.50
2018-02-20T11:37:27.925Z,28.30
2018-02-20T11:39:57.064Z,28.40
2018-02-20T11:42:25.300Z,27.10
2018-02-20T11:44:53.531Z,26.40
2018-02-20T11:47:24.596Z,26.30
2018-02-20T11:52:22.293Z,27.30
2018-02-20T11:54:52.756Z,28.40
2018-02-20T11:57:20.990Z,29.60
2018-02-20T11:59:49.220Z,29.70
2018-02-20T12:04:55.725Z,29.50
2018-02-20T12:07:24.722Z,29.70
2018-02-20T12:09:52.956Z,29.80
2018-02-20T12:12:21.574Z,30.00
2018-02-20T12:17:20.003Z,30.70
2018-02-20T12:19:49.632Z,30.60
2018-02-20T12:22:17.863Z,31.00
2018-02-20T12:24:47.237Z,30.50
2018-02-20T12:27:16.824Z,31.00
2018-02-20T12:29:45.843Z,30.80
2018-02-20T12:32:14.073Z,30.90
2018-02-20T12:34:42.621Z,31.90
2018-02-20T12:39:40.320Z,33.80
2018-02-20T12:42:08.860Z,33.90
2018-02-20T12:47:06.552Z,36.80
2018-02-20T12:49:36.736Z,37.30
2018-02-20T12:52:06.476Z,38.50
2018-02-20T12:54:34.722Z,39.90
2018-02-20T12:57:03.296Z,40.90
2018-02-20T12:59:31.540Z,41.70
2018-02-20T13:01:59.787Z,42.10
2018-02-20T13:04:30.146Z,42.90
2018-02-20T13:06:59.159Z,42.90
2018-02-20T13:09:28.177Z,43.40
2018-02-20T13:14:27.588Z,43.20
2018-02-20T13:16:56.545Z,42.80
2018-02-20T13:19:24.965Z,43.30
2018-02-20T13:21:53.964Z,42.80
2018-02-20T13:24:22.192Z,43.50
2018-02-20T13:26:50.796Z,44.00
2018-02-20T13:29:20.172Z,44.20
2018-02-20T13:31:48.400Z,44.20
2018-02-20T13:34:17.244Z,44.20
2018-02-20T13:36:46.616Z,42.30
2018-02-20T13:39:14.849Z,41.50
2018-02-20T13:41:43.384Z,40.80
2018-02-20T13:44:11.615Z,41.60
2018-02-20T13:46:39.844Z,41.60
2018-02-20T13:49:08.224Z,43.80
2018-02-20T13:51:37.231Z,44.40
2018-02-20T13:54:05.467Z,44.30
2018-02-20T13:56:34.752Z,46.10
2018-02-20T13:59:03.767Z,46.60
2018-02-20T14:01:32.005Z,47.80
2018-02-20T14:06:31.965Z,48.80
2018-02-20T14:09:00.970Z,49.30
2018-02-20T14:13:59.273Z,49.70
2018-02-20T14:16:28.294Z,49.70
2018-02-20T14:18:56.744Z,50.20
2018-02-20T14:21:24.980Z,50.00
2018-02-20T14:23:53.216Z,49.60
2018-02-20T14:26:22.558Z,49.50
2018-02-20T14:28:51.561Z,51.40
2018-02-20T14:31:19.792Z,51.30
2018-02-20T14:33:49.108Z,50.90
2018-02-20T14:36:17.345Z,50.60
2018-02-20T14:38:45.576Z,50.10
2018-02-20T14:41:14.538Z,49.10
2018-02-20T14:43:43.536Z,49.50
2018-02-20T14:46:12.542Z,50.20
2018-02-20T14:48:41.997Z,49.50
2018-02-20T14:51:11.735Z,49.10
2018-02-20T14:53:39.972Z,50.50
2018-02-20T14:56:08.753Z,50.80
2018-02-20T15:01:06.500Z,51.40
2018-02-20T15:06:05.633Z,53.50
2018-02-20T15:08:34.936Z,54.20
2018-02-20T15:11:05.235Z,54.20
2018-02-20T15:13:33.496Z,55.00
2018-02-20T15:16:02.885Z,55.50
2018-02-20T15:18:31.581Z,56.30
2018-02-20T15:21:01.321Z,56.10
2018-02-20T15:23:29.571Z,57.00
2018-02-20T15:25:58.060Z,58.10
2018-02-20T15:28:26.317Z,59.20
2018-02-20T15:30:55.717Z,58.70
2018-02-20T15:33:24.353Z,59.50
2018-02-20T15:35:54.101Z,59.10
2018-02-20T15:38:22.340Z,59.30
2018-02-20T15:40:50.912Z,58.20
2018-02-20T15:45:48.620Z,58.00
2018-02-20T15:48:17.169Z,58.80
2018-02-20T15:50:45.405Z,59.40
2018-02-20T15:55:43.176Z,61.60
2018-02-20T16:00:41.256Z,61.40
2018-02-20T16:03:10.564Z,62.20
2018-02-20T16:05:39.188Z,63.20
2018-02-20T16:08:07.420Z,63.00
2018-02-20T16:10:42.886Z,63.20
2018-02-20T16:13:11.513Z,63.70
2018-02-20T16:15:40.528Z,64.30
2018-02-20T16:20:38.688Z,64.80
2018-02-20T16:23:06.920Z,65.10
2018-02-20T16:28:10.328Z,65.10
2018-02-20T16:33:08.420Z,65.90
2018-02-20T16:35:36.794Z,65.80
2018-02-20T16:38:05.041Z,66.80
2018-02-20T16:40:33.275Z,68.10
2018-02-20T16:43:02.142Z,68.60
2018-02-20T16:45:31.882Z,69.00
2018-02-20T16:48:00.126Z,69.10
2018-02-20T16:52:59.577Z,70.00
2018-02-20T16:57:57.948Z,70.90
2018-02-20T17:00:26.188Z,71.30
2018-02-20T17:02:54.421Z,71.60
2018-02-20T17:05:24.264Z,71.80
2018-02-20T17:07:54.004Z,72.40
2018-02-20T17:10:22.236Z,71.80
2018-02-20T17:12:52.352Z,72.50
2018-02-20T17:15:21.337Z,73.20
2018-02-20T17:17:49.573Z,72.60
2018-02-20T17:20:20.119Z,73.50
2018-02-20T17:22:49.117Z,74.30
2018-02-20T17:25:17.344Z,75.00
2018-02-20T17:27:45.850Z,75.20
2018-02-20T17:30:15.216Z,75.70
2018-02-20T17:32:43.482Z,76.00
2018-02-20T17:35:11.997Z,76.50
2018-02-20T17:37:41.365Z,77.20
2018-02-20T17:40:09.588Z,78.70
2018-02-20T17:42:39.877Z,78.80
2018-02-20T17:45:08.877Z,80.30
2018-02-20T17:47:37.109Z,80.50
2018-02-20T17:50:05.628Z,80.80
2018-02-20T17:52:33.864Z,81.20
2018-02-20T17:55:02.121Z,81.30
2018-02-20T17:57:30.616Z,81.80
2018-02-20T17:59:58.864Z,82.80
2018-02-20T18:02:27.808Z,82.70
2018-02-20T18:04:58.208Z,83.60
2018-02-20T18:07:27.583Z,84.30
2018-02-20T18:09:55.818Z,84.60
2018-02-20T18:12:25.645Z,84.70
2018-02-20T18:14:55.521Z,85.50
2018-02-20T18:17:23.744Z,85.70
2018-02-20T18:19:52.292Z,86.10
2018-02-20T18:22:21.292Z,86.30
2018-02-20T18:24:49.524Z,87.20
2018-02-20T18:27:17.831Z,87.00
2018-02-20T18:29:46.077Z,87.70
2018-02-20T18:32:14.314Z,88.20
2018-02-20T18:34:44.252Z,88.20
2018-02-20T18:37:12.876Z,88.30
2018-02-20T18:39:41.119Z,88.40
2018-02-20T18:42:10.053Z,88.70
2018-02-20T18:44:38.296Z,89.40
2018-02-20T18:47:07.289Z,89.60
2018-02-20T18:49:37.040Z,89.40
2018-02-20T18:52:06.777Z,89.80
2018-02-20T18:54:35.010Z,89.80
2018-02-20T18:57:04.340Z,90.00
2018-02-20T19:02:02.065Z,90.10
2018-02-20T19:04:31.689Z,90.30
2018-02-20T19:06:59.935Z,90.30
2018-02-20T19:09:28.586Z,90.50
2018-02-20T19:11:58.689Z,90.80
2018-02-20T19:14:27.700Z,90.80
2018-02-20T19:16:56.911Z,91.00
2018-02-20T19:19:26.100Z,90.80
2018-02-20T19:21:54.337Z,90.80
2018-02-20T19:24:22.568Z,91.10
2018-02-20T19:26:50.936Z,90.50
2018-02-20T19:29:19.175Z,91.00
2018-02-20T19:31:48.549Z,90.80
2018-02-20T19:34:17.960Z,91.30
2018-02-20T19:36:46.600Z,91.40
2018-02-20T19:39:14.851Z,91.20
2018-02-20T19:41:44.192Z,91.50
2018-02-20T19:44:13.189Z,91.30
2018-02-20T19:46:41.416Z,91.60
2018-02-20T19:49:10.684Z,91.70
2018-02-20T19:51:39.268Z,91.70
2018-02-20T19:54:08.268Z,91.80
2018-02-20T19:59:07.741Z,91.80
2018-02-20T20:04:06.581Z,92.00
2018-02-20T20:06:35.952Z,91.90
2018-02-20T20:09:04.193Z,91.90
2018-02-20T20:14:07.175Z,92.30
2018-02-20T20:16:35.409Z,92.30
2018-02-20T20:19:03.854Z,92.40
2018-02-20T20:21:33.949Z,92.80
2018-02-20T20:24:02.960Z,92.40
2018-02-20T20:26:31.212Z,92.60
2018-02-20T20:28:59.606Z,92.50
2018-02-20T20:31:27.866Z,93.00
2018-02-20T20:33:56.153Z,93.20
2018-02-20T20:36:24.621Z,93.20
2018-02-20T20:38:54.360Z,93.40
2018-02-20T20:41:22.608Z,93.30
2018-02-20T20:43:51.933Z,93.40
2018-02-20T20:46:20.184Z,93.50
2018-02-20T20:48:48.426Z,93.50
2018-02-20T20:53:53.020Z,93.30
2018-02-20T20:58:50.725Z,93.70
2018-02-20T21:01:20.630Z,93.90
2018-02-20T21:03:48.864Z,94.00
2018-02-20T21:06:17.516Z,93.80
2018-02-20T21:08:46.660Z,94.00
2018-02-20T21:11:16.034Z,94.30
2018-02-20T21:13:45.040Z,94.30
2018-02-20T21:16:13.694Z,94.60
2018-02-20T21:18:41.920Z,94.70
2018-02-20T21:21:12.272Z,94.80
2018-02-20T21:23:41.524Z,95.10
2018-02-20T21:26:09.767Z,95.10
2018-02-20T21:28:37.996Z,95.20
2018-02-20T21:31:06.372Z,95.40
2018-02-20T21:33:34.656Z,95.20
2018-02-20T21:36:02.853Z,95.60
2018-02-20T21:38:32.916Z,95.80
2018-02-20T21:41:01.161Z,96.00
2018-02-20T21:43:29.430Z,96.20
2018-02-20T21:45:58.948Z,96.60
2018-02-20T21:48:27.197Z,96.70
2018-02-20T21:50:55.428Z,96.70
2018-02-20T21:53:24.957Z,96.90
2018-02-20T21:55:53.961Z,97.10
2018-02-20T22:00:52.141Z,97.10
2018-02-20T22:03:21.141Z,97.30
2018-02-20T22:05:50.348Z,97.20
2018-02-20T22:08:19.792Z,97.30
2018-02-20T22:10:49.528Z,97.70
2018-02-20T22:13:17.768Z,97.60
2018-02-20T22:15:46.323Z,97.80
2018-02-20T22:18:14.558Z,97.60
2018-02-20T22:20:42.795Z,97.90
2018-02-20T22:23:12.388Z,97.80
2018-02-20T22:28:11.220Z,98.40
2018-02-20T22:30:39.632Z,98.40
2018-02-20T22:33:08.632Z,98.60
2018-02-20T22:38:07.430Z,99.00
2018-02-20T22:40:37.173Z,98.90
2018-02-20T22:43:05.406Z,98.90
2018-02-20T22:45:34.268Z,99.40
2018-02-20T22:48:03.265Z,99.50
2018-02-20T22:50:31.509Z,99.70
2018-02-20T22:53:00.219Z,99.90
2018-02-20T22:55:28.462Z,99.90
2018-02-20T22:57:57.853Z,99.90
2018-02-20T23:00:26.365Z,99.90
2018-02-20T23:05:24.052Z,99.90
2018-02-20T23:07:52.575Z,99.90
2018-02-20T23:10:22.317Z,99.90
2018-02-20T23:15:21.294Z,99.90
2018-02-20T23:17:49.519Z,99.90
2018-02-20T23:20:17.759Z,99.90
2018-02-20T23:22:47.844Z,99.90
2018-02-20T23:25:18.929Z,99.90
2018-02-20T23:27:47.195Z,99.90
2018-02-20T23:30:16.748Z,99.90
2018-02-20T23:32:45.384Z,99.90
2018-02-20T23:35:13.617Z,99.90
2018-02-20T23:40:16.608Z,99.90
2018-02-20T23:42:45.621Z,99.90
2018-02-20T23:47:44.483Z,99.90
2018-02-20T23:52:42.172Z,99.90
2018-02-20T23:55:12.352Z,99.90
2018-02-20T23:57:41.344Z,99.90
